sensor_id;sensor_type;location;lat;lon;timestamp;temperature;humidity
15203;DHT22;7702;51.046;5.184;2023-06-22T00:00:48;20.40;99.90
15203;DHT22;7702;51.046;5.184;2023-06-22T00:03:14;20.40;99.90
15203;DHT22;7702;51.046;5.184;2023-06-22T00:05:39;20.40;99.90
15203;DHT22;7702;51.046;5.184;2023-06-22T00:08:05;20.40;99.90
15203;DHT22;7702;51.046;5.184;2023-06-22T00:10:31;20.40;99.90
15203;DHT22;7702;51.046;5.184;2023-06-22T00:12:57;20.40;99.90
15203;DHT22;7702;51.046;5.184;2023-06-22T00:15:22;20.40;99.90
15203;DHT22;7702;51.046;5.184;2023-06-22T00:17:49;20.40;99.90
15203;DHT22;7702;51.046;5.184;2023-06-22T00:20:15;20.30;99.90
15203;DHT22;7702;51.046;5.184;2023-06-22T00:22:43;20.30;99.90
15203;DHT22;7702;51.046;5.184;2023-06-22T00:25:09;20.20;99.90
15203;DHT22;7702;51.046;5.184;2023-06-22T00:27:36;20.20;99.90
15203;DHT22;7702;51.046;5.184;2023-06-22T00:30:02;20.20;99.90
15203;DHT22;7702;51.046;5.184;2023-06-22T00:32:28;20.10;99.90
15203;DHT22;7702;51.046;5.184;2023-06-22T00:34:53;20.10;99.90
15203;DHT22;7702;51.046;5.184;2023-06-22T00:37:19;20.00;99.90
15203;DHT22;7702;51.046;5.184;2023-06-22T00:39:44;19.90;99.90
15203;DHT22;7702;51.046;5.184;2023-06-22T00:42:10;19.90;99.90
15203;DHT22;7702;51.046;5.184;2023-06-22T00:44:36;19.90;99.90
15203;DHT22;7702;51.046;5.184;2023-06-22T00:47:03;19.90;99.90
15203;DHT22;7702;51.046;5.184;2023-06-22T00:49:29;20.00;99.90
15203;DHT22;7702;51.046;5.184;2023-06-22T00:51:56;20.00;99.90
15203;DHT22;7702;51.046;5.184;2023-06-22T00:54:22;20.10;99.90
15203;DHT22;7702;51.046;5.184;2023-06-22T00:56:57;20.10;99.90
15203;DHT22;7702;51.046;5.184;2023-06-22T00:59:23;20.20;99.90
15203;DHT22;7702;51.046;5.184;2023-06-22T01:01:51;20.20;99.90
15203;DHT22;7702;51.046;5.184;2023-06-22T01:04:17;20.20;99.90
15203;DHT22;7702;51.046;5.184;2023-06-22T01:10:07;20.20;99.90
15203;DHT22;7702;51.046;5.184;2023-06-22T01:12:44;20.20;99.90
15203;DHT22;7702;51.046;5.184;2023-06-22T01:15:15;20.20;99.90
15203;DHT22;7702;51.046;5.184;2023-06-22T01:17:45;20.20;99.90
15203;DHT22;7702;51.046;5.184;2023-06-22T01:20:15;20.20;99.90
15203;DHT22;7702;51.046;5.184;2023-06-22T01:23:21;20.20;99.90
15203;DHT22;7702;51.046;5.184;2023-06-22T01:28:50;20.10;99.90
15203;DHT22;7702;51.046;5.184;2023-06-22T01:31:20;20.10;99.90
15203;DHT22;7702;51.046;5.184;2023-06-22T01:33:53;20.00;99.90
15203;DHT22;7702;51.046;5.184;2023-06-22T01:36:21;20.00;99.90
15203;DHT22;7702;51.046;5.184;2023-06-22T01:38:48;20.00;99.90
15203;DHT22;7702;51.046;5.184;2023-06-22T01:41:15;20.00;99.90
15203;DHT22;7702;51.046;5.184;2023-06-22T01:43:43;20.00;99.90
15203;DHT22;7702;51.046;5.184;2023-06-22T01:46:11;20.00;99.90
15203;DHT22;7702;51.046;5.184;2023-06-22T01:48:38;20.00;99.90
15203;DHT22;7702;51.046;5.184;2023-06-22T01:51:05;20.00;99.90
15203;DHT22;7702;51.046;5.184;2023-06-22T01:53:31;19.90;99.90
15203;DHT22;7702;51.046;5.184;2023-06-22T01:55:56;19.90;99.90
15203;DHT22;7702;51.046;5.184;2023-06-22T01:58:26;19.90;99.90
15203;DHT22;7702;51.046;5.184;2023-06-22T02:01:11;19.90;99.90
15203;DHT22;7702;51.046;5.184;2023-06-22T02:03:41;19.90;99.90
15203;DHT22;7702;51.046;5.184;2023-06-22T02:06:17;19.90;99.90
15203;DHT22;7702;51.046;5.184;2023-06-22T02:08:48;20.00;99.90
15203;DHT22;7702;51.046;5.184;2023-06-22T02:11:18;20.00;99.90
15203;DHT22;7702;51.046;5.184;2023-06-22T02:13:44;20.10;99.90
15203;DHT22;7702;51.046;5.184;2023-06-22T02:16:11;20.00;99.90
15203;DHT22;7702;51.046;5.184;2023-06-22T02:18:37;20.00;99.90
15203;DHT22;7702;51.046;5.184;2023-06-22T02:21:06;20.10;99.90
15203;DHT22;7702;51.046;5.184;2023-06-22T02:23:32;20.10;99.90
15203;DHT22;7702;51.046;5.184;2023-06-22T02:26:02;20.00;99.90
15203;DHT22;7702;51.046;5.184;2023-06-22T02:28:28;19.90;99.90
15203;DHT22;7702;51.046;5.184;2023-06-22T02:30:54;19.80;99.90
15203;DHT22;7702;51.046;5.184;2023-06-22T02:33:20;19.70;99.90
15203;DHT22;7702;51.046;5.184;2023-06-22T02:35:46;19.70;99.90
15203;DHT22;7702;51.046;5.184;2023-06-22T02:38:14;19.60;99.90
15203;DHT22;7702;51.046;5.184;2023-06-22T02:40:40;19.60;99.90
15203;DHT22;7702;51.046;5.184;2023-06-22T02:43:06;19.50;99.90
15203;DHT22;7702;51.046;5.184;2023-06-22T02:45:32;19.50;99.90
15203;DHT22;7702;51.046;5.184;2023-06-22T02:47:57;19.30;99.90
15203;DHT22;7702;51.046;5.184;2023-06-22T02:50:23;19.30;99.90
15203;DHT22;7702;51.046;5.184;2023-06-22T02:52:49;19.30;99.90
15203;DHT22;7702;51.046;5.184;2023-06-22T02:55:15;19.20;99.90
15203;DHT22;7702;51.046;5.184;2023-06-22T02:57:40;19.20;99.90
15203;DHT22;7702;51.046;5.184;2023-06-22T03:00:10;19.10;99.90
15203;DHT22;7702;51.046;5.184;2023-06-22T03:02:47;19.10;99.90
15203;DHT22;7702;51.046;5.184;2023-06-22T03:05:14;19.00;99.90
15203;DHT22;7702;51.046;5.184;2023-06-22T03:07:43;19.00;99.90
15203;DHT22;7702;51.046;5.184;2023-06-22T03:10:10;18.90;99.90
15203;DHT22;7702;51.046;5.184;2023-06-22T03:12:38;18.90;99.90
15203;DHT22;7702;51.046;5.184;2023-06-22T03:15:05;18.80;99.90
15203;DHT22;7702;51.046;5.184;2023-06-22T03:17:31;18.80;99.90
15203;DHT22;7702;51.046;5.184;2023-06-22T03:19:57;18.70;99.90
15203;DHT22;7702;51.046;5.184;2023-06-22T03:22:23;18.70;99.90
15203;DHT22;7702;51.046;5.184;2023-06-22T03:24:49;18.70;99.90
15203;DHT22;7702;51.046;5.184;2023-06-22T03:27:15;18.70;99.90
15203;DHT22;7702;51.046;5.184;2023-06-22T03:29:41;18.70;99.90
15203;DHT22;7702;51.046;5.184;2023-06-22T03:32:06;18.80;99.90
15203;DHT22;7702;51.046;5.184;2023-06-22T03:34:32;18.80;99.90
15203;DHT22;7702;51.046;5.184;2023-06-22T03:37:04;18.90;99.90
15203;DHT22;7702;51.046;5.184;2023-06-22T03:39:31;18.90;99.90
15203;DHT22;7702;51.046;5.184;2023-06-22T03:41:57;18.80;99.90
15203;DHT22;7702;51.046;5.184;2023-06-22T03:44:23;18.80;99.90
15203;DHT22;7702;51.046;5.184;2023-06-22T03:46:49;18.90;99.90
15203;DHT22;7702;51.046;5.184;2023-06-22T03:49:16;18.90;99.90
15203;DHT22;7702;51.046;5.184;2023-06-22T03:51:41;18.90;99.90
15203;DHT22;7702;51.046;5.184;2023-06-22T03:54:07;18.90;99.90
15203;DHT22;7702;51.046;5.184;2023-06-22T03:56:33;18.90;99.90
15203;DHT22;7702;51.046;5.184;2023-06-22T03:58:58;19.00;99.90
15203;DHT22;7702;51.046;5.184;2023-06-22T04:01:24;19.10;99.90
15203;DHT22;7702;51.046;5.184;2023-06-22T04:03:49;19.10;99.90
15203;DHT22;7702;51.046;5.184;2023-06-22T04:06:15;19.10;99.90
15203;DHT22;7702;51.046;5.184;2023-06-22T04:08:41;19.10;99.90
15203;DHT22;7702;51.046;5.184;2023-06-22T04:11:07;19.20;99.90
15203;DHT22;7702;51.046;5.184;2023-06-22T04:13:33;19.20;99.90
15203;DHT22;7702;51.046;5.184;2023-06-22T04:15:58;19.20;99.90
15203;DHT22;7702;51.046;5.184;2023-06-22T04:18:26;19.30;99.90
15203;DHT22;7702;51.046;5.184;2023-06-22T04:20:52;19.30;99.90
15203;DHT22;7702;51.046;5.184;2023-06-22T04:23:18;19.40;99.90
15203;DHT22;7702;51.046;5.184;2023-06-22T04:25:44;19.40;99.90
15203;DHT22;7702;51.046;5.184;2023-06-22T04:28:09;19.40;99.90
15203;DHT22;7702;51.046;5.184;2023-06-22T04:30:38;19.40;99.90
15203;DHT22;7702;51.046;5.184;2023-06-22T04:33:15;19.50;99.90
15203;DHT22;7702;51.046;5.184;2023-06-22T04:35:41;19.50;99.90
15203;DHT22;7702;51.046;5.184;2023-06-22T04:38:07;19.50;99.90
15203;DHT22;7702;51.046;5.184;2023-06-22T04:40:33;19.70;99.90
15203;DHT22;7702;51.046;5.184;2023-06-22T04:42:59;19.60;99.90
15203;DHT22;7702;51.046;5.184;2023-06-22T04:45:28;19.60;99.90
15203;DHT22;7702;51.046;5.184;2023-06-22T04:47:56;19.70;99.90
15203;DHT22;7702;51.046;5.184;2023-06-22T04:50:22;19.70;99.90
15203;DHT22;7702;51.046;5.184;2023-06-22T04:52:49;19.70;99.90
15203;DHT22;7702;51.046;5.184;2023-06-22T04:55:15;19.70;99.90
15203;DHT22;7702;51.046;5.184;2023-06-22T04:57:47;19.70;99.90
15203;DHT22;7702;51.046;5.184;2023-06-22T05:00:20;19.70;99.90
15203;DHT22;7702;51.046;5.184;2023-06-22T05:02:48;19.70;99.90
15203;DHT22;7702;51.046;5.184;2023-06-22T05:05:14;19.70;99.90
15203;DHT22;7702;51.046;5.184;2023-06-22T05:07:42;19.80;99.90
15203;DHT22;7702;51.046;5.184;2023-06-22T05:10:10;19.80;99.90
15203;DHT22;7702;51.046;5.184;2023-06-22T05:12:37;19.80;99.90
15203;DHT22;7702;51.046;5.184;2023-06-22T05:15:03;19.80;99.90
15203;DHT22;7702;51.046;5.184;2023-06-22T05:17:29;20.00;99.90
15203;DHT22;7702;51.046;5.184;2023-06-22T05:19:54;20.00;99.90
15203;DHT22;7702;51.046;5.184;2023-06-22T05:22:21;20.10;99.90
15203;DHT22;7702;51.046;5.184;2023-06-22T05:24:47;20.10;99.90
15203;DHT22;7702;51.046;5.184;2023-06-22T05:27:13;20.20;99.90
15203;DHT22;7702;51.046;5.184;2023-06-22T05:29:39;20.20;99.90
15203;DHT22;7702;51.046;5.184;2023-06-22T05:32:05;20.30;99.90
15203;DHT22;7702;51.046;5.184;2023-06-22T05:34:32;20.30;99.90
15203;DHT22;7702;51.046;5.184;2023-06-22T05:36:57;20.40;99.90
15203;DHT22;7702;51.046;5.184;2023-06-22T05:39:26;20.40;99.90
15203;DHT22;7702;51.046;5.184;2023-06-22T05:41:53;20.30;99.90
15203;DHT22;7702;51.046;5.184;2023-06-22T05:44:18;20.30;99.90
15203;DHT22;7702;51.046;5.184;2023-06-22T05:46:45;20.40;99.90
15203;DHT22;7702;51.046;5.184;2023-06-22T05:49:13;20.40;99.90
15203;DHT22;7702;51.046;5.184;2023-06-22T05:51:39;20.40;99.90
15203;DHT22;7702;51.046;5.184;2023-06-22T05:54:05;20.40;99.90
15203;DHT22;7702;51.046;5.184;2023-06-22T05:56:31;20.40;99.90
15203;DHT22;7702;51.046;5.184;2023-06-22T05:58:57;20.40;99.90
15203;DHT22;7702;51.046;5.184;2023-06-22T06:01:22;20.40;99.90
15203;DHT22;7702;51.046;5.184;2023-06-22T06:03:48;20.40;99.90
15203;DHT22;7702;51.046;5.184;2023-06-22T06:06:15;20.40;99.90
15203;DHT22;7702;51.046;5.184;2023-06-22T06:08:41;20.30;99.90
15203;DHT22;7702;51.046;5.184;2023-06-22T06:11:07;20.20;99.90
15203;DHT22;7702;51.046;5.184;2023-06-22T06:13:33;20.10;99.90
15203;DHT22;7702;51.046;5.184;2023-06-22T06:15:58;20.10;99.90
15203;DHT22;7702;51.046;5.184;2023-06-22T06:18:25;20.10;99.90
15203;DHT22;7702;51.046;5.184;2023-06-22T06:20:50;20.20;99.90
15203;DHT22;7702;51.046;5.184;2023-06-22T06:23:16;20.20;99.90
15203;DHT22;7702;51.046;5.184;2023-06-22T06:25:42;20.20;99.90
15203;DHT22;7702;51.046;5.184;2023-06-22T06:28:08;20.10;99.90
15203;DHT22;7702;51.046;5.184;2023-06-22T06:30:34;20.00;99.90
15203;DHT22;7702;51.046;5.184;2023-06-22T06:33:02;20.10;99.90
15203;DHT22;7702;51.046;5.184;2023-06-22T06:35:28;20.10;99.90
15203;DHT22;7702;51.046;5.184;2023-06-22T06:37:54;20.00;99.90
15203;DHT22;7702;51.046;5.184;2023-06-22T06:40:19;20.00;99.90
15203;DHT22;7702;51.046;5.184;2023-06-22T06:42:48;20.10;99.90
15203;DHT22;7702;51.046;5.184;2023-06-22T06:45:23;20.20;99.90
15203;DHT22;7702;51.046;5.184;2023-06-22T06:47:50;20.40;99.90
15203;DHT22;7702;51.046;5.184;2023-06-22T06:50:16;20.50;99.90
15203;DHT22;7702;51.046;5.184;2023-06-22T06:52:42;20.60;99.90
15203;DHT22;7702;51.046;5.184;2023-06-22T06:55:08;20.50;99.90
15203;DHT22;7702;51.046;5.184;2023-06-22T06:57:40;20.50;99.90
15203;DHT22;7702;51.046;5.184;2023-06-22T07:00:09;20.60;99.90
15203;DHT22;7702;51.046;5.184;2023-06-22T07:02:38;20.70;99.90
15203;DHT22;7702;51.046;5.184;2023-06-22T07:05:05;20.70;99.90
15203;DHT22;7702;51.046;5.184;2023-06-22T07:07:31;20.90;99.90
15203;DHT22;7702;51.046;5.184;2023-06-22T07:09:58;21.00;99.90
15203;DHT22;7702;51.046;5.184;2023-06-22T07:12:24;21.00;99.90
15203;DHT22;7702;51.046;5.184;2023-06-22T07:14:51;21.00;99.90
15203;DHT22;7702;51.046;5.184;2023-06-22T07:17:17;21.00;99.90
15203;DHT22;7702;51.046;5.184;2023-06-22T07:19:42;21.00;99.90
15203;DHT22;7702;51.046;5.184;2023-06-22T07:22:08;21.00;99.90
15203;DHT22;7702;51.046;5.184;2023-06-22T07:24:34;21.00;99.90
15203;DHT22;7702;51.046;5.184;2023-06-22T07:26:59;21.20;99.90
15203;DHT22;7702;51.046;5.184;2023-06-22T07:29:25;21.20;99.90
15203;DHT22;7702;51.046;5.184;2023-06-22T07:31:52;21.30;99.90
15203;DHT22;7702;51.046;5.184;2023-06-22T07:34:18;21.40;99.90
15203;DHT22;7702;51.046;5.184;2023-06-22T07:36:44;21.60;99.90
15203;DHT22;7702;51.046;5.184;2023-06-22T07:39:10;21.70;99.90
15203;DHT22;7702;51.046;5.184;2023-06-22T07:41:38;21.70;99.90
15203;DHT22;7702;51.046;5.184;2023-06-22T07:44:04;21.40;99.90
15203;DHT22;7702;51.046;5.184;2023-06-22T07:46:31;21.50;99.90
15203;DHT22;7702;51.046;5.184;2023-06-22T07:48:57;21.50;99.90
15203;DHT22;7702;51.046;5.184;2023-06-22T07:51:24;21.50;99.90
15203;DHT22;7702;51.046;5.184;2023-06-22T07:53:50;21.60;99.90
15203;DHT22;7702;51.046;5.184;2023-06-22T07:56:15;21.60;99.90
15203;DHT22;7702;51.046;5.184;2023-06-22T07:58:45;21.50;99.90
15203;DHT22;7702;51.046;5.184;2023-06-22T08:01:11;21.40;99.90
15203;DHT22;7702;51.046;5.184;2023-06-22T08:03:37;21.50;99.90
15203;DHT22;7702;51.046;5.184;2023-06-22T08:06:03;21.50;99.90
15203;DHT22;7702;51.046;5.184;2023-06-22T08:08:29;21.60;99.90
15203;DHT22;7702;51.046;5.184;2023-06-22T08:10:54;21.50;99.90
15203;DHT22;7702;51.046;5.184;2023-06-22T08:13:20;21.50;99.90
15203;DHT22;7702;51.046;5.184;2023-06-22T08:15:46;21.40;99.90
15203;DHT22;7702;51.046;5.184;2023-06-22T08:18:12;21.30;99.90
15203;DHT22;7702;51.046;5.184;2023-06-22T08:20:37;21.40;99.90
15203;DHT22;7702;51.046;5.184;2023-06-22T08:23:03;21.40;99.90
15203;DHT22;7702;51.046;5.184;2023-06-22T08:25:34;21.30;99.90
15203;DHT22;7702;51.046;5.184;2023-06-22T08:28:03;21.10;99.90
15203;DHT22;7702;51.046;5.184;2023-06-22T08:30:30;21.00;99.90
15203;DHT22;7702;51.046;5.184;2023-06-22T08:32:56;21.10;99.90
15203;DHT22;7702;51.046;5.184;2023-06-22T08:35:25;21.20;99.90
15203;DHT22;7702;51.046;5.184;2023-06-22T08:37:50;21.00;99.90
15203;DHT22;7702;51.046;5.184;2023-06-22T08:40:20;20.90;99.90
15203;DHT22;7702;51.046;5.184;2023-06-22T08:42:47;21.00;99.90
15203;DHT22;7702;51.046;5.184;2023-06-22T08:45:13;21.00;99.90
15203;DHT22;7702;51.046;5.184;2023-06-22T08:47:42;21.00;99.90
15203;DHT22;7702;51.046;5.184;2023-06-22T08:50:09;21.00;99.90
15203;DHT22;7702;51.046;5.184;2023-06-22T08:52:36;21.10;99.90
15203;DHT22;7702;51.046;5.184;2023-06-22T08:55:01;21.20;99.90
15203;DHT22;7702;51.046;5.184;2023-06-22T08:57:28;21.20;99.90
15203;DHT22;7702;51.046;5.184;2023-06-22T08:59:54;21.00;99.90
15203;DHT22;7702;51.046;5.184;2023-06-22T09:02:26;20.90;99.90
15203;DHT22;7702;51.046;5.184;2023-06-22T09:04:52;20.70;99.90
15203;DHT22;7702;51.046;5.184;2023-06-22T09:07:21;20.80;99.90
15203;DHT22;7702;51.046;5.184;2023-06-22T09:09:49;20.80;99.90
15203;DHT22;7702;51.046;5.184;2023-06-22T09:12:15;20.80;99.90
15203;DHT22;7702;51.046;5.184;2023-06-22T09:14:41;20.80;99.90
15203;DHT22;7702;51.046;5.184;2023-06-22T09:17:07;20.70;99.90
15203;DHT22;7702;51.046;5.184;2023-06-22T09:19:32;20.60;99.90
15203;DHT22;7702;51.046;5.184;2023-06-22T09:21:58;20.50;99.90
15203;DHT22;7702;51.046;5.184;2023-06-22T09:24:24;20.40;99.90
15203;DHT22;7702;51.046;5.184;2023-06-22T09:26:50;20.40;99.90
15203;DHT22;7702;51.046;5.184;2023-06-22T09:29:16;20.40;99.90
15203;DHT22;7702;51.046;5.184;2023-06-22T09:31:42;20.30;99.90
15203;DHT22;7702;51.046;5.184;2023-06-22T09:34:08;20.20;99.90
15203;DHT22;7702;51.046;5.184;2023-06-22T09:36:33;20.30;99.90
15203;DHT22;7702;51.046;5.184;2023-06-22T09:39:00;20.30;99.90
15203;DHT22;7702;51.046;5.184;2023-06-22T09:41:31;20.30;99.90
15203;DHT22;7702;51.046;5.184;2023-06-22T09:43:56;20.30;99.90
15203;DHT22;7702;51.046;5.184;2023-06-22T09:46:22;20.40;99.90
15203;DHT22;7702;51.046;5.184;2023-06-22T09:48:50;20.40;99.90
15203;DHT22;7702;51.046;5.184;2023-06-22T09:51:16;20.50;99.90
15203;DHT22;7702;51.046;5.184;2023-06-22T09:53:42;20.50;99.90
15203;DHT22;7702;51.046;5.184;2023-06-22T09:56:09;20.50;99.90
15203;DHT22;7702;51.046;5.184;2023-06-22T09:58:43;20.60;99.90
15203;DHT22;7702;51.046;5.184;2023-06-22T10:01:09;20.70;99.90
15203;DHT22;7702;51.046;5.184;2023-06-22T10:03:36;20.70;99.90
15203;DHT22;7702;51.046;5.184;2023-06-22T10:06:02;20.80;99.90
15203;DHT22;7702;51.046;5.184;2023-06-22T10:08:28;20.90;99.90
15203;DHT22;7702;51.046;5.184;2023-06-22T10:10:53;21.00;99.90
15203;DHT22;7702;51.046;5.184;2023-06-22T10:13:19;21.20;99.90
15203;DHT22;7702;51.046;5.184;2023-06-22T10:15:45;21.30;99.90
15203;DHT22;7702;51.046;5.184;2023-06-22T10:18:15;21.20;99.90
15203;DHT22;7702;51.046;5.184;2023-06-22T10:20:46;21.20;99.90
15203;DHT22;7702;51.046;5.184;2023-06-22T10:23:12;21.20;99.90
15203;DHT22;7702;51.046;5.184;2023-06-22T10:25:38;21.10;99.90
15203;DHT22;7702;51.046;5.184;2023-06-22T10:28:04;21.00;99.90
15203;DHT22;7702;51.046;5.184;2023-06-22T10:30:30;21.20;99.90
15203;DHT22;7702;51.046;5.184;2023-06-22T10:32:55;21.20;99.90
15203;DHT22;7702;51.046;5.184;2023-06-22T10:35:21;21.20;99.90
15203;DHT22;7702;51.046;5.184;2023-06-22T10:37:48;21.20;99.90
15203;DHT22;7702;51.046;5.184;2023-06-22T10:40:15;21.30;99.90
15203;DHT22;7702;51.046;5.184;2023-06-22T10:42:41;21.30;99.90
15203;DHT22;7702;51.046;5.184;2023-06-22T10:45:07;21.30;99.90
15203;DHT22;7702;51.046;5.184;2023-06-22T10:47:33;21.40;99.90
15203;DHT22;7702;51.046;5.184;2023-06-22T10:49:59;21.30;99.90
15203;DHT22;7702;51.046;5.184;2023-06-22T10:52:25;21.30;99.90
15203;DHT22;7702;51.046;5.184;2023-06-22T10:54:51;21.00;99.90
15203;DHT22;7702;51.046;5.184;2023-06-22T10:57:18;20.90;99.90
15203;DHT22;7702;51.046;5.184;2023-06-22T10:59:43;21.00;99.90
15203;DHT22;7702;51.046;5.184;2023-06-22T11:02:10;21.10;99.90
15203;DHT22;7702;51.046;5.184;2023-06-22T11:04:35;21.00;99.90
15203;DHT22;7702;51.046;5.184;2023-06-22T11:07:01;20.90;99.90
15203;DHT22;7702;51.046;5.184;2023-06-22T11:09:27;20.70;99.90
15203;DHT22;7702;51.046;5.184;2023-06-22T11:11:53;20.60;99.90
15203;DHT22;7702;51.046;5.184;2023-06-22T11:14:19;20.60;99.90
15203;DHT22;7702;51.046;5.184;2023-06-22T11:16:45;20.60;99.90
15203;DHT22;7702;51.046;5.184;2023-06-22T11:19:14;20.60;99.90
15203;DHT22;7702;51.046;5.184;2023-06-22T11:21:40;20.70;99.90
15203;DHT22;7702;51.046;5.184;2023-06-22T11:24:06;20.60;99.90
15203;DHT22;7702;51.046;5.184;2023-06-22T11:26:31;20.50;99.90
15203;DHT22;7702;51.046;5.184;2023-06-22T11:28:58;20.50;99.90
15203;DHT22;7702;51.046;5.184;2023-06-22T11:31:24;20.40;99.90
15203;DHT22;7702;51.046;5.184;2023-06-22T11:33:50;20.50;99.90
15203;DHT22;7702;51.046;5.184;2023-06-22T11:36:16;20.50;99.90
15203;DHT22;7702;51.046;5.184;2023-06-22T11:38:42;20.50;99.90
15203;DHT22;7702;51.046;5.184;2023-06-22T11:41:09;20.60;99.90
15203;DHT22;7702;51.046;5.184;2023-06-22T11:43:35;20.50;99.90
15203;DHT22;7702;51.046;5.184;2023-06-22T11:46:03;20.50;99.90
15203;DHT22;7702;51.046;5.184;2023-06-22T11:48:29;20.40;99.90
15203;DHT22;7702;51.046;5.184;2023-06-22T11:50:56;20.40;99.90
15203;DHT22;7702;51.046;5.184;2023-06-22T11:53:24;20.50;99.90
15203;DHT22;7702;51.046;5.184;2023-06-22T11:55:50;20.30;99.90
15203;DHT22;7702;51.046;5.184;2023-06-22T11:58:16;20.20;99.90
15203;DHT22;7702;51.046;5.184;2023-06-22T12:00:41;20.00;99.90
15203;DHT22;7702;51.046;5.184;2023-06-22T12:03:08;20.10;99.90
15203;DHT22;7702;51.046;5.184;2023-06-22T12:05:34;20.10;99.90
15203;DHT22;7702;51.046;5.184;2023-06-22T12:08:00;20.00;99.90
15203;DHT22;7702;51.046;5.184;2023-06-22T12:10:26;20.00;99.90
15203;DHT22;7702;51.046;5.184;2023-06-22T12:12:54;19.80;99.90
15203;DHT22;7702;51.046;5.184;2023-06-22T12:15:19;19.80;99.90
15203;DHT22;7702;51.046;5.184;2023-06-22T12:17:45;19.70;99.90
15203;DHT22;7702;51.046;5.184;2023-06-22T12:20:13;19.80;99.90
15203;DHT22;7702;51.046;5.184;2023-06-22T12:22:40;19.70;99.90
15203;DHT22;7702;51.046;5.184;2023-06-22T12:25:07;19.80;99.90
15203;DHT22;7702;51.046;5.184;2023-06-22T12:27:32;19.70;99.90
15203;DHT22;7702;51.046;5.184;2023-06-22T12:29:58;19.60;99.90
15203;DHT22;7702;51.046;5.184;2023-06-22T12:32:24;19.60;99.90
15203;DHT22;7702;51.046;5.184;2023-06-22T12:34:51;19.60;99.90
15203;DHT22;7702;51.046;5.184;2023-06-22T12:37:17;19.50;99.90
15203;DHT22;7702;51.046;5.184;2023-06-22T12:39:44;19.50;99.90
15203;DHT22;7702;51.046;5.184;2023-06-22T12:42:10;19.50;99.90
15203;DHT22;7702;51.046;5.184;2023-06-22T12:44:38;19.50;99.90
15203;DHT22;7702;51.046;5.184;2023-06-22T12:47:05;19.50;99.90
15203;DHT22;7702;51.046;5.184;2023-06-22T12:49:31;19.50;99.90
15203;DHT22;7702;51.046;5.184;2023-06-22T12:51:57;19.50;99.90
15203;DHT22;7702;51.046;5.184;2023-06-22T12:54:23;19.40;99.90
15203;DHT22;7702;51.046;5.184;2023-06-22T12:56:50;19.50;99.90
15203;DHT22;7702;51.046;5.184;2023-06-22T12:59:15;19.40;99.90
15203;DHT22;7702;51.046;5.184;2023-06-22T13:01:43;19.30;99.90
15203;DHT22;7702;51.046;5.184;2023-06-22T13:04:09;19.40;99.90
15203;DHT22;7702;51.046;5.184;2023-06-22T13:06:36;19.30;99.90
15203;DHT22;7702;51.046;5.184;2023-06-22T13:09:02;19.30;99.90
15203;DHT22;7702;51.046;5.184;2023-06-22T13:11:31;19.30;99.90
15203;DHT22;7702;51.046;5.184;2023-06-22T13:13:56;19.30;99.90
15203;DHT22;7702;51.046;5.184;2023-06-22T13:16:22;19.30;99.90
15203;DHT22;7702;51.046;5.184;2023-06-22T13:18:47;19.20;99.90
15203;DHT22;7702;51.046;5.184;2023-06-22T13:21:13;19.30;99.90
15203;DHT22;7702;51.046;5.184;2023-06-22T13:23:39;19.30;99.90
15203;DHT22;7702;51.046;5.184;2023-06-22T13:26:05;19.30;99.90
15203;DHT22;7702;51.046;5.184;2023-06-22T13:28:31;19.30;99.90
15203;DHT22;7702;51.046;5.184;2023-06-22T13:30:57;19.30;99.90
15203;DHT22;7702;51.046;5.184;2023-06-22T13:33:23;19.20;99.90
15203;DHT22;7702;51.046;5.184;2023-06-22T13:35:48;19.20;99.90
15203;DHT22;7702;51.046;5.184;2023-06-22T13:38:15;19.10;99.90
15203;DHT22;7702;51.046;5.184;2023-06-22T13:40:40;19.10;99.90
15203;DHT22;7702;51.046;5.184;2023-06-22T13:43:07;19.10;99.90
15203;DHT22;7702;51.046;5.184;2023-06-22T13:45:33;19.10;99.90
15203;DHT22;7702;51.046;5.184;2023-06-22T13:47:59;19.10;99.90
15203;DHT22;7702;51.046;5.184;2023-06-22T13:50:25;19.00;99.90
15203;DHT22;7702;51.046;5.184;2023-06-22T13:52:51;19.00;99.90
15203;DHT22;7702;51.046;5.184;2023-06-22T13:55:17;19.10;99.90
15203;DHT22;7702;51.046;5.184;2023-06-22T13:57:43;19.00;99.90
15203;DHT22;7702;51.046;5.184;2023-06-22T14:00:09;19.00;99.90
15203;DHT22;7702;51.046;5.184;2023-06-22T14:02:35;19.00;99.90
15203;DHT22;7702;51.046;5.184;2023-06-22T14:05:00;19.00;99.90
15203;DHT22;7702;51.046;5.184;2023-06-22T14:07:27;19.00;99.90
15203;DHT22;7702;51.046;5.184;2023-06-22T14:09:53;19.00;99.90
15203;DHT22;7702;51.046;5.184;2023-06-22T14:12:19;18.90;99.90
15203;DHT22;7702;51.046;5.184;2023-06-22T14:14:45;18.90;99.90
15203;DHT22;7702;51.046;5.184;2023-06-22T14:17:10;18.70;99.90
15203;DHT22;7702;51.046;5.184;2023-06-22T14:19:36;18.70;99.90
15203;DHT22;7702;51.046;5.184;2023-06-22T14:22:03;18.70;99.90
15203;DHT22;7702;51.046;5.184;2023-06-22T14:24:28;18.80;99.90
15203;DHT22;7702;51.046;5.184;2023-06-22T14:26:55;18.70;99.90
15203;DHT22;7702;51.046;5.184;2023-06-22T14:29:21;18.70;99.90
15203;DHT22;7702;51.046;5.184;2023-06-22T14:31:48;18.70;99.90
15203;DHT22;7702;51.046;5.184;2023-06-22T14:34:14;18.70;99.90
15203;DHT22;7702;51.046;5.184;2023-06-22T14:36:41;18.70;99.90
15203;DHT22;7702;51.046;5.184;2023-06-22T14:39:06;18.60;99.90
15203;DHT22;7702;51.046;5.184;2023-06-22T14:41:32;18.60;99.90
15203;DHT22;7702;51.046;5.184;2023-06-22T14:43:58;18.60;99.90
15203;DHT22;7702;51.046;5.184;2023-06-22T14:46:23;18.60;99.90
15203;DHT22;7702;51.046;5.184;2023-06-22T14:48:49;18.60;99.90
15203;DHT22;7702;51.046;5.184;2023-06-22T14:51:15;18.60;99.90
15203;DHT22;7702;51.046;5.184;2023-06-22T14:53:43;18.70;99.90
15203;DHT22;7702;51.046;5.184;2023-06-22T14:56:08;18.70;99.90
15203;DHT22;7702;51.046;5.184;2023-06-22T14:58:34;18.50;99.90
15203;DHT22;7702;51.046;5.184;2023-06-22T15:01:02;18.50;99.90
15203;DHT22;7702;51.046;5.184;2023-06-22T15:03:29;18.60;99.90
15203;DHT22;7702;51.046;5.184;2023-06-22T15:05:57;18.60;99.90
15203;DHT22;7702;51.046;5.184;2023-06-22T15:08:24;18.50;99.90
15203;DHT22;7702;51.046;5.184;2023-06-22T15:10:51;18.50;99.90
15203;DHT22;7702;51.046;5.184;2023-06-22T15:13:17;18.50;99.90
15203;DHT22;7702;51.046;5.184;2023-06-22T15:15:44;18.50;99.90
15203;DHT22;7702;51.046;5.184;2023-06-22T15:18:09;18.50;99.90
15203;DHT22;7702;51.046;5.184;2023-06-22T15:20:35;18.40;99.90
15203;DHT22;7702;51.046;5.184;2023-06-22T15:23:01;18.40;99.90
15203;DHT22;7702;51.046;5.184;2023-06-22T15:25:26;18.50;99.90
15203;DHT22;7702;51.046;5.184;2023-06-22T15:27:52;18.50;99.90
15203;DHT22;7702;51.046;5.184;2023-06-22T15:30:18;18.50;99.90
15203;DHT22;7702;51.046;5.184;2023-06-22T15:32:44;18.40;99.90
15203;DHT22;7702;51.046;5.184;2023-06-22T15:35:10;18.40;99.90
15203;DHT22;7702;51.046;5.184;2023-06-22T15:37:36;18.40;99.90
15203;DHT22;7702;51.046;5.184;2023-06-22T15:40:02;18.40;99.90
15203;DHT22;7702;51.046;5.184;2023-06-22T15:42:29;18.40;99.90
15203;DHT22;7702;51.046;5.184;2023-06-22T15:44:55;18.40;99.90
15203;DHT22;7702;51.046;5.184;2023-06-22T15:47:20;18.40;99.90